sensor_id;sensor_type;location;lat;lon;timestamp;P1;durP1;ratioP1;P2;durP2;ratioP2
81006;SDS011;70472;47.592;17.640;2023-10-19T00:00:05;11.87;;;11.87;;
81006;SDS011;70472;47.592;17.640;2023-10-19T00:00:40;12.57;;;12.57;;
81006;SDS011;70472;47.592;17.640;2023-10-19T00:01:13;12.53;;;12.53;;
81006;SDS011;70472;47.592;17.640;2023-10-19T00:01:46;11.47;;;11.47;;
81006;SDS011;70472;47.592;17.640;2023-10-19T00:02:19;11.97;;;11.97;;
81006;SDS011;70472;47.592;17.640;2023-10-19T00:02:51;12.47;;;12.47;;
81006;SDS011;70472;47.592;17.640;2023-10-19T00:03:24;12.23;;;12.23;;
81006;SDS011;70472;47.592;17.640;2023-10-19T00:03:57;12.07;;;12.07;;
81006;SDS011;70472;47.592;17.640;2023-10-19T00:04:29;12.80;;;12.80;;
81006;SDS011;70472;47.592;17.640;2023-10-19T00:05:02;12.27;;;12.27;;
81006;SDS011;70472;47.592;17.640;2023-10-19T00:05:36;12.50;;;12.50;;
81006;SDS011;70472;47.592;17.640;2023-10-19T00:06:11;12.03;;;12.03;;
81006;SDS011;70472;47.592;17.640;2023-10-19T00:06:43;12.30;;;12.30;;
81006;SDS011;70472;47.592;17.640;2023-10-19T00:07:16;12.03;;;12.03;;
81006;SDS011;70472;47.592;17.640;2023-10-19T00:07:48;12.43;;;12.43;;
81006;SDS011;70472;47.592;17.640;2023-10-19T00:08:21;12.27;;;12.27;;
81006;SDS011;70472;47.592;17.640;2023-10-19T00:08:53;13.03;;;13.03;;
81006;SDS011;70472;47.592;17.640;2023-10-19T00:09:26;12.47;;;12.47;;
81006;SDS011;70472;47.592;17.640;2023-10-19T00:09:59;13.13;;;13.13;;
81006;SDS011;70472;47.592;17.640;2023-10-19T00:10:31;12.97;;;12.97;;
81006;SDS011;70472;47.592;17.640;2023-10-19T00:11:04;13.00;;;13.00;;
81006;SDS011;70472;47.592;17.640;2023-10-19T00:11:36;12.13;;;12.13;;
81006;SDS011;70472;47.592;17.640;2023-10-19T00:12:09;11.83;;;11.83;;
81006;SDS011;70472;47.592;17.640;2023-10-19T00:12:41;12.30;;;12.30;;
81006;SDS011;70472;47.592;17.640;2023-10-19T00:13:14;11.93;;;11.93;;
81006;SDS011;70472;47.592;17.640;2023-10-19T00:13:47;12.20;;;12.20;;
81006;SDS011;70472;47.592;17.640;2023-10-19T00:14:20;12.23;;;12.23;;
81006;SDS011;70472;47.592;17.640;2023-10-19T00:14:53;11.73;;;11.73;;
81006;SDS011;70472;47.592;17.640;2023-10-19T00:15:26;11.97;;;11.97;;
81006;SDS011;70472;47.592;17.640;2023-10-19T00:15:58;12.10;;;12.10;;
81006;SDS011;70472;47.592;17.640;2023-10-19T00:16:31;11.40;;;11.40;;
81006;SDS011;70472;47.592;17.640;2023-10-19T00:17:03;11.63;;;11.63;;
81006;SDS011;70472;47.592;17.640;2023-10-19T00:17:37;12.90;;;12.90;;
81006;SDS011;70472;47.592;17.640;2023-10-19T00:18:10;12.70;;;12.70;;
81006;SDS011;70472;47.592;17.640;2023-10-19T00:18:44;12.30;;;12.30;;
81006;SDS011;70472;47.592;17.640;2023-10-19T00:19:18;11.93;;;11.93;;
81006;SDS011;70472;47.592;17.640;2023-10-19T00:19:51;12.23;;;12.23;;
81006;SDS011;70472;47.592;17.640;2023-10-19T00:20:23;11.97;;;11.97;;
81006;SDS011;70472;47.592;17.640;2023-10-19T00:20:55;12.53;;;12.53;;
81006;SDS011;70472;47.592;17.640;2023-10-19T00:21:28;12.70;;;12.70;;
81006;SDS011;70472;47.592;17.640;2023-10-19T00:22:00;12.33;;;12.33;;
81006;SDS011;70472;47.592;17.640;2023-10-19T00:22:33;12.70;;;12.70;;
81006;SDS011;70472;47.592;17.640;2023-10-19T00:23:06;12.73;;;12.73;;
81006;SDS011;70472;47.592;17.640;2023-10-19T00:23:38;11.63;;;11.63;;
81006;SDS011;70472;47.592;17.640;2023-10-19T00:24:12;11.87;;;11.87;;
81006;SDS011;70472;47.592;17.640;2023-10-19T00:24:44;12.23;;;12.23;;
81006;SDS011;70472;47.592;17.640;2023-10-19T00:25:17;12.57;;;12.57;;
81006;SDS011;70472;47.592;17.640;2023-10-19T00:25:49;12.13;;;12.13;;
81006;SDS011;70472;47.592;17.640;2023-10-19T00:26:24;11.90;;;11.90;;
81006;SDS011;70472;47.592;17.640;2023-10-19T00:27:02;12.40;;;12.40;;
81006;SDS011;70472;47.592;17.640;2023-10-19T00:27:37;12.67;;;12.67;;
81006;SDS011;70472;47.592;17.640;2023-10-19T00:28:10;11.43;;;11.43;;
81006;SDS011;70472;47.592;17.640;2023-10-19T00:28:43;11.43;;;11.43;;
81006;SDS011;70472;47.592;17.640;2023-10-19T00:29:15;12.53;;;12.53;;
81006;SDS011;70472;47.592;17.640;2023-10-19T00:29:48;12.73;;;12.73;;
81006;SDS011;70472;47.592;17.640;2023-10-19T00:30:20;12.17;;;12.17;;
81006;SDS011;70472;47.592;17.640;2023-10-19T00:30:53;11.90;;;11.90;;
81006;SDS011;70472;47.592;17.640;2023-10-19T00:31:27;11.90;;;11.90;;
81006;SDS011;70472;47.592;17.640;2023-10-19T00:32:03;12.40;;;12.40;;
81006;SDS011;70472;47.592;17.640;2023-10-19T00:32:36;12.80;;;12.80;;
81006;SDS011;70472;47.592;17.640;2023-10-19T00:33:08;12.53;;;12.53;;
81006;SDS011;70472;47.592;17.640;2023-10-19T00:33:41;12.27;;;12.27;;
81006;SDS011;70472;47.592;17.640;2023-10-19T00:34:13;13.00;;;13.00;;
81006;SDS011;70472;47.592;17.640;2023-10-19T00:34:46;12.10;;;12.10;;
81006;SDS011;70472;47.592;17.640;2023-10-19T00:35:19;11.63;;;11.63;;
81006;SDS011;70472;47.592;17.640;2023-10-19T00:35:51;12.30;;;12.30;;
81006;SDS011;70472;47.592;17.640;2023-10-19T00:36:25;12.40;;;12.40;;
81006;SDS011;70472;47.592;17.640;2023-10-19T00:36:58;12.47;;;12.47;;
81006;SDS011;70472;47.592;17.640;2023-10-19T00:37:31;11.80;;;11.80;;
81006;SDS011;70472;47.592;17.640;2023-10-19T00:38:04;11.93;;;11.93;;
81006;SDS011;70472;47.592;17.640;2023-10-19T00:38:37;12.13;;;12.13;;
81006;SDS011;70472;47.592;17.640;2023-10-19T00:39:10;12.00;;;12.00;;
81006;SDS011;70472;47.592;17.640;2023-10-19T00:39:43;12.07;;;12.07;;
81006;SDS011;70472;47.592;17.640;2023-10-19T00:40:15;11.87;;;11.87;;
81006;SDS011;70472;47.592;17.640;2023-10-19T00:40:51;12.57;;;12.57;;
81006;SDS011;70472;47.592;17.640;2023-10-19T00:41:25;12.80;;;12.80;;
81006;SDS011;70472;47.592;17.640;2023-10-19T00:41:58;13.47;;;13.47;;
81006;SDS011;70472;47.592;17.640;2023-10-19T00:42:31;12.67;;;12.67;;
81006;SDS011;70472;47.592;17.640;2023-10-19T00:43:05;13.20;;;13.20;;
81006;SDS011;70472;47.592;17.640;2023-10-19T00:43:38;12.47;;;12.47;;
81006;SDS011;70472;47.592;17.640;2023-10-19T00:44:14;12.80;;;12.80;;
81006;SDS011;70472;47.592;17.640;2023-10-19T00:44:47;13.40;;;13.40;;
81006;SDS011;70472;47.592;17.640;2023-10-19T00:45:19;13.20;;;13.20;;
81006;SDS011;70472;47.592;17.640;2023-10-19T00:45:52;13.67;;;13.67;;
81006;SDS011;70472;47.592;17.640;2023-10-19T00:46:24;13.13;;;13.13;;
81006;SDS011;70472;47.592;17.640;2023-10-19T00:46:57;13.43;;;13.43;;
81006;SDS011;70472;47.592;17.640;2023-10-19T00:47:31;13.87;;;13.87;;
81006;SDS011;70472;47.592;17.640;2023-10-19T00:48:06;14.23;;;14.23;;
81006;SDS011;70472;47.592;17.640;2023-10-19T00:48:44;15.17;;;15.17;;
81006;SDS011;70472;47.592;17.640;2023-10-19T00:49:31;14.20;;;14.20;;
81006;SDS011;70472;47.592;17.640;2023-10-19T00:50:04;14.03;;;14.03;;
81006;SDS011;70472;47.592;17.640;2023-10-19T00:50:37;13.93;;;13.93;;
81006;SDS011;70472;47.592;17.640;2023-10-19T00:51:10;14.70;;;14.70;;
81006;SDS011;70472;47.592;17.640;2023-10-19T00:51:45;13.87;;;13.87;;
81006;SDS011;70472;47.592;17.640;2023-10-19T00:52:24;14.80;;;14.80;;
81006;SDS011;70472;47.592;17.640;2023-10-19T00:52:57;14.53;;;14.53;;
81006;SDS011;70472;47.592;17.640;2023-10-19T00:53:30;14.87;;;14.87;;
81006;SDS011;70472;47.592;17.640;2023-10-19T00:54:15;15.27;;;15.27;;
81006;SDS011;70472;47.592;17.640;2023-10-19T00:54:51;14.87;;;14.87;;
81006;SDS011;70472;47.592;17.640;2023-10-19T00:55:29;14.73;;;14.73;;
81006;SDS011;70472;47.592;17.640;2023-10-19T00:56:04;14.80;;;14.80;;
81006;SDS011;70472;47.592;17.640;2023-10-19T00:56:41;14.43;;;14.43;;
81006;SDS011;70472;47.592;17.640;2023-10-19T00:57:16;14.83;;;14.83;;
81006;SDS011;70472;47.592;17.640;2023-10-19T00:57:51;14.10;;;14.10;;
81006;SDS011;70472;47.592;17.640;2023-10-19T00:58:26;14.10;;;14.10;;
81006;SDS011;70472;47.592;17.640;2023-10-19T00:58:59;15.00;;;15.00;;
81006;SDS011;70472;47.592;17.640;2023-10-19T00:59:31;14.17;;;14.17;;
81006;SDS011;70472;47.592;17.640;2023-10-19T01:00:05;14.87;;;14.87;;
81006;SDS011;70472;47.592;17.640;2023-10-19T01:00:39;15.53;;;15.53;;
81006;SDS011;70472;47.592;17.640;2023-10-19T01:01:11;15.10;;;15.10;;
81006;SDS011;70472;47.592;17.640;2023-10-19T01:01:44;16.03;;;16.03;;
81006;SDS011;70472;47.592;17.640;2023-10-19T01:02:17;15.60;;;15.60;;
81006;SDS011;70472;47.592;17.640;2023-10-19T01:02:50;14.87;;;14.87;;
81006;SDS011;70472;47.592;17.640;2023-10-19T01:03:23;14.40;;;14.40;;
81006;SDS011;70472;47.592;17.640;2023-10-19T01:03:59;14.70;;;14.70;;
81006;SDS011;70472;47.592;17.640;2023-10-19T01:04:31;14.63;;;14.63;;
81006;SDS011;70472;47.592;17.640;2023-10-19T01:05:04;14.97;;;14.97;;
81006;SDS011;70472;47.592;17.640;2023-10-19T01:05:37;14.87;;;14.87;;
81006;SDS011;70472;47.592;17.640;2023-10-19T01:06:10;15.50;;;15.50;;
81006;SDS011;70472;47.592;17.640;2023-10-19T01:06:44;14.83;;;14.83;;
81006;SDS011;70472;47.592;17.640;2023-10-19T01:07:17;14.07;;;14.07;;
81006;SDS011;70472;47.592;17.640;2023-10-19T01:07:50;14.83;;;14.83;;
81006;SDS011;70472;47.592;17.640;2023-10-19T01:08:22;15.17;;;15.17;;
81006;SDS011;70472;47.592;17.640;2023-10-19T01:08:55;15.37;;;15.37;;
81006;SDS011;70472;47.592;17.640;2023-10-19T01:09:28;15.40;;;15.40;;
81006;SDS011;70472;47.592;17.640;2023-10-19T01:10:02;14.87;;;14.87;;
81006;SDS011;70472;47.592;17.640;2023-10-19T01:10:36;16.13;;;16.13;;
81006;SDS011;70472;47.592;17.640;2023-10-19T01:11:09;15.53;;;15.53;;
81006;SDS011;70472;47.592;17.640;2023-10-19T01:11:43;14.57;;;14.57;;
81006;SDS011;70472;47.592;17.640;2023-10-19T01:12:15;14.57;;;14.57;;
81006;SDS011;70472;47.592;17.640;2023-10-19T01:12:48;14.57;;;14.57;;
81006;SDS011;70472;47.592;17.640;2023-10-19T01:13:20;15.17;;;15.17;;
81006;SDS011;70472;47.592;17.640;2023-10-19T01:13:53;15.53;;;15.53;;
81006;SDS011;70472;47.592;17.640;2023-10-19T01:14:25;14.97;;;14.97;;
81006;SDS011;70472;47.592;17.640;2023-10-19T01:15:02;15.00;;;15.00;;
81006;SDS011;70472;47.592;17.640;2023-10-19T01:15:36;15.60;;;15.60;;
81006;SDS011;70472;47.592;17.640;2023-10-19T01:16:11;14.70;;;14.70;;
81006;SDS011;70472;47.592;17.640;2023-10-19T01:16:48;15.07;;;15.07;;
81006;SDS011;70472;47.592;17.640;2023-10-19T01:17:21;15.33;;;15.33;;
81006;SDS011;70472;47.592;17.640;2023-10-19T01:17:54;16.47;;;16.47;;
81006;SDS011;70472;47.592;17.640;2023-10-19T01:18:29;15.37;;;15.37;;
81006;SDS011;70472;47.592;17.640;2023-10-19T01:19:01;14.30;;;14.30;;
81006;SDS011;70472;47.592;17.640;2023-10-19T01:19:34;14.47;;;14.47;;
81006;SDS011;70472;47.592;17.640;2023-10-19T01:20:15;14.60;;;14.60;;
81006;SDS011;70472;47.592;17.640;2023-10-19T01:20:51;14.53;;;14.53;;
81006;SDS011;70472;47.592;17.640;2023-10-19T01:21:24;15.03;;;15.03;;
81006;SDS011;70472;47.592;17.640;2023-10-19T01:21:56;14.23;;;14.23;;
81006;SDS011;70472;47.592;17.640;2023-10-19T01:22:29;15.47;;;15.47;;
81006;SDS011;70472;47.592;17.640;2023-10-19T01:23:36;14.80;;;14.80;;
81006;SDS011;70472;47.592;17.640;2023-10-19T01:24:10;14.40;;;14.40;;
81006;SDS011;70472;47.592;17.640;2023-10-19T01:24:43;14.70;;;14.70;;
81006;SDS011;70472;47.592;17.640;2023-10-19T01:25:15;15.03;;;15.03;;
81006;SDS011;70472;47.592;17.640;2023-10-19T01:25:49;14.73;;;14.73;;
81006;SDS011;70472;47.592;17.640;2023-10-19T01:26:24;14.60;;;14.60;;
81006;SDS011;70472;47.592;17.640;2023-10-19T01:26:57;14.80;;;14.80;;
81006;SDS011;70472;47.592;17.640;2023-10-19T01:27:29;14.37;;;14.37;;
81006;SDS011;70472;47.592;17.640;2023-10-19T01:28:06;14.70;;;14.70;;
81006;SDS011;70472;47.592;17.640;2023-10-19T01:28:42;13.90;;;13.90;;
81006;SDS011;70472;47.592;17.640;2023-10-19T01:29:15;13.60;;;13.60;;
81006;SDS011;70472;47.592;17.640;2023-10-19T01:29:47;13.67;;;13.67;;
81006;SDS011;70472;47.592;17.640;2023-10-19T01:30:20;13.50;;;13.50;;
81006;SDS011;70472;47.592;17.640;2023-10-19T01:30:53;14.03;;;14.03;;
81006;SDS011;70472;47.592;17.640;2023-10-19T01:31:26;14.77;;;14.77;;
81006;SDS011;70472;47.592;17.640;2023-10-19T01:31:59;13.97;;;13.97;;
81006;SDS011;70472;47.592;17.640;2023-10-19T01:32:31;13.93;;;13.93;;
81006;SDS011;70472;47.592;17.640;2023-10-19T01:33:05;14.40;;;14.40;;
81006;SDS011;70472;47.592;17.640;2023-10-19T01:33:38;14.43;;;14.43;;
81006;SDS011;70472;47.592;17.640;2023-10-19T01:34:10;15.13;;;15.13;;
81006;SDS011;70472;47.592;17.640;2023-10-19T01:34:43;14.63;;;14.63;;
81006;SDS011;70472;47.592;17.640;2023-10-19T01:35:17;15.07;;;15.07;;
81006;SDS011;70472;47.592;17.640;2023-10-19T01:35:50;13.10;;;13.10;;
81006;SDS011;70472;47.592;17.640;2023-10-19T01:36:23;14.47;;;14.47;;
81006;SDS011;70472;47.592;17.640;2023-10-19T01:37:00;14.70;;;14.70;;
81006;SDS011;70472;47.592;17.640;2023-10-19T01:37:34;14.93;;;14.93;;
81006;SDS011;70472;47.592;17.640;2023-10-19T01:38:08;14.53;;;14.53;;
81006;SDS011;70472;47.592;17.640;2023-10-19T01:38:40;15.23;;;15.23;;
81006;SDS011;70472;47.592;17.640;2023-10-19T01:39:14;14.57;;;14.57;;
81006;SDS011;70472;47.592;17.640;2023-10-19T01:39:46;13.90;;;13.90;;
81006;SDS011;70472;47.592;17.640;2023-10-19T01:40:19;15.07;;;15.07;;
81006;SDS011;70472;47.592;17.640;2023-10-19T01:40:51;14.63;;;14.63;;
81006;SDS011;70472;47.592;17.640;2023-10-19T01:41:24;14.57;;;14.57;;
81006;SDS011;70472;47.592;17.640;2023-10-19T01:41:57;14.23;;;14.23;;
81006;SDS011;70472;47.592;17.640;2023-10-19T01:42:31;14.17;;;14.17;;
81006;SDS011;70472;47.592;17.640;2023-10-19T01:43:03;14.07;;;14.07;;
81006;SDS011;70472;47.592;17.640;2023-10-19T01:43:36;13.63;;;13.63;;
81006;SDS011;70472;47.592;17.640;2023-10-19T01:44:09;15.67;;;15.67;;
81006;SDS011;70472;47.592;17.640;2023-10-19T01:44:42;14.87;;;14.87;;
81006;SDS011;70472;47.592;17.640;2023-10-19T01:45:14;14.17;;;14.17;;
81006;SDS011;70472;47.592;17.640;2023-10-19T01:45:47;14.47;;;14.47;;
81006;SDS011;70472;47.592;17.640;2023-10-19T01:46:21;14.93;;;14.93;;
81006;SDS011;70472;47.592;17.640;2023-10-19T01:46:55;15.73;;;15.73;;
81006;SDS011;70472;47.592;17.640;2023-10-19T01:47:27;15.80;;;15.80;;
81006;SDS011;70472;47.592;17.640;2023-10-19T01:48:00;14.70;;;14.70;;
81006;SDS011;70472;47.592;17.640;2023-10-19T01:48:32;15.07;;;15.07;;
81006;SDS011;70472;47.592;17.640;2023-10-19T01:49:05;14.70;;;14.70;;
81006;SDS011;70472;47.592;17.640;2023-10-19T01:49:38;14.43;;;14.43;;
81006;SDS011;70472;47.592;17.640;2023-10-19T01:50:12;15.07;;;15.07;;
81006;SDS011;70472;47.592;17.640;2023-10-19T01:50:46;14.73;;;14.73;;
81006;SDS011;70472;47.592;17.640;2023-10-19T01:51:18;14.63;;;14.63;;
81006;SDS011;70472;47.592;17.640;2023-10-19T01:51:52;16.00;;;16.00;;
81006;SDS011;70472;47.592;17.640;2023-10-19T01:52:26;15.83;;;15.83;;
81006;SDS011;70472;47.592;17.640;2023-10-19T01:52:58;15.97;;;15.97;;
81006;SDS011;70472;47.592;17.640;2023-10-19T01:53:31;16.43;;;16.43;;
81006;SDS011;70472;47.592;17.640;2023-10-19T01:54:07;16.53;;;16.53;;
81006;SDS011;70472;47.592;17.640;2023-10-19T01:54:40;15.10;;;15.10;;
81006;SDS011;70472;47.592;17.640;2023-10-19T01:55:12;14.53;;;14.53;;
81006;SDS011;70472;47.592;17.640;2023-10-19T01:55:45;15.00;;;15.00;;
81006;SDS011;70472;47.592;17.640;2023-10-19T01:56:17;15.53;;;15.53;;
81006;SDS011;70472;47.592;17.640;2023-10-19T01:56:53;15.80;;;15.80;;
81006;SDS011;70472;47.592;17.640;2023-10-19T01:57:27;14.97;;;14.97;;
81006;SDS011;70472;47.592;17.640;2023-10-19T01:58:00;15.00;;;15.00;;
81006;SDS011;70472;47.592;17.640;2023-10-19T01:58:33;16.33;;;16.33;;
81006;SDS011;70472;47.592;17.640;2023-10-19T01:59:06;15.73;;;15.73;;
81006;SDS011;70472;47.592;17.640;2023-10-19T01:59:38;15.10;;;15.10;;
81006;SDS011;70472;47.592;17.640;2023-10-19T02:00:11;15.07;;;15.07;;
81006;SDS011;70472;47.592;17.640;2023-10-19T02:00:44;15.43;;;15.43;;
81006;SDS011;70472;47.592;17.640;2023-10-19T02:01:20;15.90;;;15.90;;
81006;SDS011;70472;47.592;17.640;2023-10-19T02:01:53;15.67;;;15.67;;
81006;SDS011;70472;47.592;17.640;2023-10-19T02:02:26;15.33;;;15.33;;
81006;SDS011;70472;47.592;17.640;2023-10-19T02:02:59;15.77;;;15.77;;
81006;SDS011;70472;47.592;17.640;2023-10-19T02:03:31;14.73;;;14.73;;
81006;SDS011;70472;47.592;17.640;2023-10-19T02:04:04;14.57;;;14.57;;
81006;SDS011;70472;47.592;17.640;2023-10-19T02:04:40;14.60;;;14.60;;
81006;SDS011;70472;47.592;17.640;2023-10-19T02:05:13;15.17;;;15.17;;
81006;SDS011;70472;47.592;17.640;2023-10-19T02:05:45;15.57;;;15.57;;
81006;SDS011;70472;47.592;17.640;2023-10-19T02:06:18;15.63;;;15.63;;
81006;SDS011;70472;47.592;17.640;2023-10-19T02:06:51;14.57;;;14.57;;
81006;SDS011;70472;47.592;17.640;2023-10-19T02:07:23;15.20;;;15.20;;
81006;SDS011;70472;47.592;17.640;2023-10-19T02:07:56;15.67;;;15.67;;
81006;SDS011;70472;47.592;17.640;2023-10-19T02:08:28;15.60;;;15.60;;
81006;SDS011;70472;47.592;17.640;2023-10-19T02:09:04;14.73;;;14.73;;
81006;SDS011;70472;47.592;17.640;2023-10-19T02:09:37;15.33;;;15.33;;
81006;SDS011;70472;47.592;17.640;2023-10-19T02:10:09;14.77;;;14.77;;
81006;SDS011;70472;47.592;17.640;2023-10-19T02:10:46;15.10;;;15.10;;
81006;SDS011;70472;47.592;17.640;2023-10-19T02:11:22;15.57;;;15.57;;
81006;SDS011;70472;47.592;17.640;2023-10-19T02:11:56;15.63;;;15.63;;
81006;SDS011;70472;47.592;17.640;2023-10-19T02:12:29;15.23;;;15.23;;
81006;SDS011;70472;47.592;17.640;2023-10-19T02:13:02;14.47;;;14.47;;
81006;SDS011;70472;47.592;17.640;2023-10-19T02:13:55;15.23;;;15.23;;
81006;SDS011;70472;47.592;17.640;2023-10-19T02:14:28;16.43;;;16.43;;
81006;SDS011;70472;47.592;17.640;2023-10-19T02:15:01;15.17;;;15.17;;
81006;SDS011;70472;47.592;17.640;2023-10-19T02:15:35;15.83;;;15.83;;
81006;SDS011;70472;47.592;17.640;2023-10-19T02:16:08;15.37;;;15.37;;
81006;SDS011;70472;47.592;17.640;2023-10-19T02:16:43;15.37;;;15.37;;
81006;SDS011;70472;47.592;17.640;2023-10-19T02:17:21;14.87;;;14.87;;
81006;SDS011;70472;47.592;17.640;2023-10-19T02:17:54;15.20;;;15.20;;
81006;SDS011;70472;47.592;17.640;2023-10-19T02:18:29;15.93;;;15.93;;
81006;SDS011;70472;47.592;17.640;2023-10-19T02:19:02;15.20;;;15.20;;
81006;SDS011;70472;47.592;17.640;2023-10-19T02:19:34;15.63;;;15.63;;
81006;SDS011;70472;47.592;17.640;2023-10-19T02:20:07;15.83;;;15.83;;
81006;SDS011;70472;47.592;17.640;2023-10-19T02:20:40;14.73;;;14.73;;
81006;SDS011;70472;47.592;17.640;2023-10-19T02:21:13;14.60;;;14.60;;
81006;SDS011;70472;47.592;17.640;2023-10-19T02:21:47;14.27;;;14.27;;
81006;SDS011;70472;47.592;17.640;2023-10-19T02:22:20;16.20;;;16.20;;
81006;SDS011;70472;47.592;17.640;2023-10-19T02:22:57;15.30;;;15.30;;
81006;SDS011;70472;47.592;17.640;2023-10-19T02:23:30;14.83;;;14.83;;
81006;SDS011;70472;47.592;17.640;2023-10-19T02:24:03;16.50;;;16.50;;
81006;SDS011;70472;47.592;17.640;2023-10-19T02:24:37;15.70;;;15.70;;
81006;SDS011;70472;47.592;17.640;2023-10-19T02:25:10;15.93;;;15.93;;
81006;SDS011;70472;47.592;17.640;2023-10-19T02:25:43;16.07;;;16.07;;
81006;SDS011;70472;47.592;17.640;2023-10-19T02:26:16;16.10;;;16.10;;
81006;SDS011;70472;47.592;17.640;2023-10-19T02:26:50;16.47;;;16.47;;
81006;SDS011;70472;47.592;17.640;2023-10-19T02:27:26;15.33;;;15.33;;
81006;SDS011;70472;47.592;17.640;2023-10-19T02:28:05;15.23;;;15.23;;
81006;SDS011;70472;47.592;17.640;2023-10-19T02:28:38;14.73;;;14.73;;
81006;SDS011;70472;47.592;17.640;2023-10-19T02:29:10;15.20;;;15.20;;
81006;SDS011;70472;47.592;17.640;2023-10-19T02:29:43;16.00;;;16.00;;
81006;SDS011;70472;47.592;17.640;2023-10-19T02:30:15;15.00;;;15.00;;
81006;SDS011;70472;47.592;17.640;2023-10-19T02:30:49;15.93;;;15.93;;
81006;SDS011;70472;47.592;17.640;2023-10-19T02:31:22;15.80;;;15.80;;
81006;SDS011;70472;47.592;17.640;2023-10-19T02:31:57;15.67;;;15.67;;
81006;SDS011;70472;47.592;17.640;2023-10-19T02:32:29;16.23;;;16.23;;
81006;SDS011;70472;47.592;17.640;2023-10-19T02:33:02;16.20;;;16.20;;
81006;SDS011;70472;47.592;17.640;2023-10-19T02:33:35;15.30;;;15.30;;
81006;SDS011;70472;47.592;17.640;2023-10-19T02:34:08;14.83;;;14.83;;
81006;SDS011;70472;47.592;17.640;2023-10-19T02:34:44;15.47;;;15.47;;
81006;SDS011;70472;47.592;17.640;2023-10-19T02:35:17;15.33;;;15.33;;
81006;SDS011;70472;47.592;17.640;2023-10-19T02:35:49;15.30;;;15.30;;
81006;SDS011;70472;47.592;17.640;2023-10-19T02:36:22;15.73;;;15.73;;
81006;SDS011;70472;47.592;17.640;2023-10-19T02:36:54;15.93;;;15.93;;
81006;SDS011;70472;47.592;17.640;2023-10-19T02:37:28;15.43;;;15.43;;
81006;SDS011;70472;47.592;17.640;2023-10-19T02:38:01;15.40;;;15.40;;
81006;SDS011;70472;47.592;17.640;2023-10-19T02:38:34;15.90;;;15.90;;
81006;SDS011;70472;47.592;17.640;2023-10-19T02:39:07;16.27;;;16.27;;
81006;SDS011;70472;47.592;17.640;2023-10-19T02:39:43;16.50;;;16.50;;
81006;SDS011;70472;47.592;17.640;2023-10-19T02:40:15;15.47;;;15.47;;
81006;SDS011;70472;47.592;17.640;2023-10-19T02:40:48;14.10;;;14.10;;
81006;SDS011;70472;47.592;17.640;2023-10-19T02:41:21;14.50;;;14.50;;
81006;SDS011;70472;47.592;17.640;2023-10-19T02:41:53;14.93;;;14.93;;
81006;SDS011;70472;47.592;17.640;2023-10-19T02:42:26;15.57;;;15.57;;
81006;SDS011;70472;47.592;17.640;2023-10-19T02:43:01;15.73;;;15.73;;
81006;SDS011;70472;47.592;17.640;2023-10-19T02:43:34;15.80;;;15.80;;
81006;SDS011;70472;47.592;17.640;2023-10-19T02:44:10;15.20;;;15.20;;
81006;SDS011;70472;47.592;17.640;2023-10-19T02:44:47;14.57;;;14.57;;
81006;SDS011;70472;47.592;17.640;2023-10-19T02:45:22;15.73;;;15.73;;
81006;SDS011;70472;47.592;17.640;2023-10-19T02:45:55;15.57;;;15.57;;
81006;SDS011;70472;47.592;17.640;2023-10-19T02:46:29;16.13;;;16.13;;
81006;SDS011;70472;47.592;17.640;2023-10-19T02:47:05;16.30;;;16.30;;
81006;SDS011;70472;47.592;17.640;2023-10-19T02:47:37;15.70;;;15.70;;
81006;SDS011;70472;47.592;17.640;2023-10-19T02:48:10;15.80;;;15.80;;
81006;SDS011;70472;47.592;17.640;2023-10-19T02:48:44;15.83;;;15.83;;
81006;SDS011;70472;47.592;17.640;2023-10-19T02:49:17;15.77;;;15.77;;
81006;SDS011;70472;47.592;17.640;2023-10-19T02:49:53;16.10;;;16.10;;
81006;SDS011;70472;47.592;17.640;2023-10-19T02:50:25;16.20;;;16.20;;
81006;SDS011;70472;47.592;17.640;2023-10-19T02:50:58;15.23;;;15.23;;
81006;SDS011;70472;47.592;17.640;2023-10-19T02:51:32;14.50;;;14.50;;
81006;SDS011;70472;47.592;17.640;2023-10-19T02:52:04;15.00;;;15.00;;
81006;SDS011;70472;47.592;17.640;2023-10-19T02:52:37;15.03;;;15.03;;
81006;SDS011;70472;47.592;17.640;2023-10-19T02:53:09;15.77;;;15.77;;
81006;SDS011;70472;47.592;17.640;2023-10-19T02:53:42;15.27;;;15.27;;
81006;SDS011;70472;47.592;17.640;2023-10-19T02:54:18;15.27;;;15.27;;
81006;SDS011;70472;47.592;17.640;2023-10-19T02:54:52;14.97;;;14.97;;
81006;SDS011;70472;47.592;17.640;2023-10-19T02:55:25;15.90;;;15.90;;
81006;SDS011;70472;47.592;17.640;2023-10-19T02:55:57;15.07;;;15.07;;
81006;SDS011;70472;47.592;17.640;2023-10-19T02:56:33;15.57;;;15.57;;
81006;SDS011;70472;47.592;17.640;2023-10-19T02:57:07;14.63;;;14.63;;
81006;SDS011;70472;47.592;17.640;2023-10-19T02:57:40;15.67;;;15.67;;
81006;SDS011;70472;47.592;17.640;2023-10-19T02:58:13;16.37;;;16.37;;
81006;SDS011;70472;47.592;17.640;2023-10-19T02:58:46;15.97;;;15.97;;
81006;SDS011;70472;47.592;17.640;2023-10-19T02:59:19;17.20;;;17.20;;
81006;SDS011;70472;47.592;17.640;2023-10-19T02:59:55;15.77;;;15.77;;
81006;SDS011;70472;47.592;17.640;2023-10-19T03:00:28;16.00;;;16.00;;
81006;SDS011;70472;47.592;17.640;2023-10-19T03:01:01;16.70;;;16.70;;
81006;SDS011;70472;47.592;17.640;2023-10-19T03:01:33;17.20;;;17.20;;
81006;SDS011;70472;47.592;17.640;2023-10-19T03:02:06;15.90;;;15.90;;
81006;SDS011;70472;47.592;17.640;2023-10-19T03:02:38;16.27;;;16.27;;
81006;SDS011;70472;47.592;17.640;2023-10-19T03:03:11;15.23;;;15.23;;
81006;SDS011;70472;47.592;17.640;2023-10-19T03:03:44;14.77;;;14.77;;
81006;SDS011;70472;47.592;17.640;2023-10-19T03:04:16;16.37;;;16.37;;
81006;SDS011;70472;47.592;17.640;2023-10-19T03:04:49;17.13;;;17.13;;
81006;SDS011;70472;47.592;17.640;2023-10-19T03:05:22;15.97;;;15.97;;
81006;SDS011;70472;47.592;17.640;2023-10-19T03:05:55;14.63;;;14.63;;
81006;SDS011;70472;47.592;17.640;2023-10-19T03:06:28;15.27;;;15.27;;
81006;SDS011;70472;47.592;17.640;2023-10-19T03:07:05;15.30;;;15.30;;
81006;SDS011;70472;47.592;17.640;2023-10-19T03:07:38;14.30;;;14.30;;
81006;SDS011;70472;47.592;17.640;2023-10-19T03:08:11;14.70;;;14.70;;
81006;SDS011;70472;47.592;17.640;2023-10-19T03:08:43;15.93;;;15.93;;
81006;SDS011;70472;47.592;17.640;2023-10-19T03:09:17;15.50;;;15.50;;
81006;SDS011;70472;47.592;17.640;2023-10-19T03:09:49;15.63;;;15.63;;
81006;SDS011;70472;47.592;17.640;2023-10-19T03:10:22;15.73;;;15.73;;
81006;SDS011;70472;47.592;17.640;2023-10-19T03:10:54;16.20;;;16.20;;
81006;SDS011;70472;47.592;17.640;2023-10-19T03:11:27;15.70;;;15.70;;
81006;SDS011;70472;47.592;17.640;2023-10-19T03:12:00;15.47;;;15.47;;
81006;SDS011;70472;47.592;17.640;2023-10-19T03:12:32;15.53;;;15.53;;
81006;SDS011;70472;47.592;17.640;2023-10-19T03:13:05;15.83;;;15.83;;
81006;SDS011;70472;47.592;17.640;2023-10-19T03:13:37;15.23;;;15.23;;